Terminal Aerodrome Forecast
Issued by NWS

Home | Current Version | Previous Version | Text Only | Print | Product List | Glossary On
Versions: 1 2 3 4 5 6 7 8 9 10 11 12 13 14 15 16 17 18 19 20 21 22 23
000
FTUS41 KPBZ 210300 AAA
TAFZZV
TAF AMD
KZZV 210311Z 2103/2124 19004KT P6SM -SHRA OVC035
     FM210600 25003KT 5SM BR VCSH SCT008 OVC015
      TEMPO 2107/2111 OVC008
     FM211500 30006KT P6SM OVC025
     FM212100 31008KT P6SM BKN035=

USA.gov is the U.S. government's official web portal to all federal, state and local government web resources and services.